Warwick, RI

08:52 EST le 20 janvier 2017 (GMT -0500)
Green State | | Change Station

Alt. 52 ft 41.72 °N, 71.43 °W | Updated 1 hour ago

Nuageux
Nuageux
32 ° F
Paraît 29 ° F
N
4
Vent Variable Vent de ONO

Aujourd'hui
Haut(e) -- | Bas -- ° F
--% Risque de précip.
Hier
Haut(e) -- | Bas -- ° F
Precip. -- pouce
Pression 30.03 pouce
Visibilité 10.0 Miles terrestres
Nuages Nuageux 3200 ft
Nuageux 30000 ft
Refroidissement éolien 29 ° F
Point de rosée 28 ° F
Humidité 85%
Précipitations 0.00 pouce
Profondeur de la couche neigeuse Non disponible.
7:07 AM 4:46 PM
Dernier quartier, 44% visible
METAR KPVD 201251Z 29003KT 10SM BKN032 BKN300 00/M02 A3003 RMK AO2 SLP167 T00001022
Pression 30.03 pouce
Visibilité 10.0 Miles terrestres
Nuages Nuageux 3200 ft
Nuageux 30000 ft
Refroidissement éolien 29 ° F
Point de rosée 28 ° F
Humidité 85%
Précipitations 0.00 pouce
Profondeur de la couche neigeuse Non disponible.
7:07 AM 4:46 PM
Dernier quartier, 44% visible
METAR KPVD 201251Z 29003KT 10SM BKN032 BKN300 00/M02 A3003 RMK AO2 SLP167 T00001022

Get Your Daily Forecast Email!

Thanks for signing up!

Be on the lookout for a verification email in your inbox.

You'll start receiving the daily forecast at 8 AM.

×

10-Day Weather Forecast

Almanac

Astronomie

Jan. 20, 2017 Lever Coucher
Temps réel
Crépuscule civil
Crépuscule nautique
Crépuscule astronomique
Lune
Durée de lumière visible
Longueur du jour
Tomorrow will be .
, % of the Moon is Illuminated

Extrêmes aujourd'hui

State Highs State Lows

Community

WunderPhotos

Upload Photos

1,962,540 Photos téléchargées !

WunderBlog® & News

Nearby

Qualité de l'air

  Qualité de l'air Indice de la qualité de l'air Polluant
Not available.

Épaisseur de neige

Station Depth Altitude

Activité sismique

Ville Distance Mag. Time & Date
Minimum magnitude displayed is 2.5.

Températures des eaux côtières

Lieu Température

Stations

Stations météo à proximité

Emplacement de la station Température Refroidissement éolien Point de rosée Humidité Vent Precip. Alt. Mise à jour Type
                   

Watches & Warnings

There are currently no watches in effect.